首页
METAR-TAF:

METAR-TAF

机场 :

South Wood County Airport (Alexander Field)

Wisconsin Rapids, 威斯康辛州, 美国

纬度: 44-21-33N, 经度: 089-50-13W, 海拔: 311米

当前天气观测

该预报发布于7分钟前的06:54 UTC
风速4节,风向南转西南
温度 8°C
湿度 100%
气压 1009 hPa
能見度: 1.6公里
阴天层高于200英尺
轻雾

METAR: KISW 200654Z AUTO 20004KT 1SM BR OVC002 08/08 A2979 RMK AO2 SLP090 T00830078

时间: 02:01 (07:01 UTC)


TAF: 丢失

超过4000个机场的气象观测和天气预报(METAR&TAF报告)。

可查询的气象台以黄色和红色小点在地图上表示。

将鼠标移到小点上方,可查看气象台名称。

然后点击查看天气观测和预报。

如需切换地图:点击带黑十字的绿色按钮放大地图;点击带横线的绿色按钮缩小地图;或者点击绿色箭头查看邻近地区的地图。


METAR-TAF: